createdAt,value
2022-08-24T00:01:41.253Z,39.47
2022-08-24T03:37:01.467Z,48.28
2022-08-24T03:39:28.469Z,52.90
2022-08-24T03:41:55.313Z,47.72
2022-08-24T03:45:04.513Z,48.83
2022-08-24T03:47:37.463Z,46.50
2022-08-24T03:50:06.983Z,42.95
2022-08-24T03:53:05.491Z,42.58
2022-08-24T03:55:32.500Z,40.78
2022-08-24T03:57:59.942Z,42.95
2022-08-24T04:00:26.638Z,44.13
2022-08-24T04:11:53.480Z,37.60
2022-08-24T04:14:35.505Z,36.60
2022-08-24T04:17:02.935Z,35.90
2022-08-24T04:19:36.736Z,37.55
2022-08-24T04:22:05.981Z,42.22
2022-08-24T04:24:39.607Z,43.40
2022-08-24T04:30:01.521Z,38.08
2022-08-24T04:32:28.186Z,34.22
2022-08-24T04:34:54.881Z,38.65
2022-08-24T04:37:28.108Z,34.70
2022-08-24T04:39:56.162Z,34.05
2022-08-24T04:42:23.000Z,37.35
2022-08-24T04:48:37.531Z,38.60
2022-08-24T04:51:14.177Z,34.60
2022-08-24T04:54:43.532Z,38.15
2022-08-24T04:57:17.400Z,35.73
2022-08-24T04:59:51.521Z,44.00
2022-08-24T05:07:41.875Z,38.55
2022-08-24T05:10:11.132Z,41.10
2022-08-24T05:12:38.390Z,39.55
2022-08-24T05:15:06.142Z,38.20
2022-08-24T05:17:32.857Z,36.58
2022-08-24T05:19:59.755Z,34.20
2022-08-24T05:22:27.155Z,33.35
2022-08-24T05:24:53.853Z,34.28
2022-08-24T05:27:23.001Z,34.70
2022-08-24T05:29:55.884Z,28.92
2022-08-24T05:32:22.801Z,31.52
2022-08-24T05:34:49.523Z,28.05
2022-08-24T05:37:16.217Z,28.63
2022-08-24T05:39:42.927Z,30.40
2022-08-24T05:42:09.878Z,34.47
2022-08-24T05:44:36.590Z,33.05
2022-08-24T05:47:03.471Z,30.98
2022-08-24T05:49:31.021Z,37.03
2022-08-24T05:51:57.820Z,51.58
2022-08-24T05:54:26.887Z,45.97
2022-08-24T05:56:54.780Z,38.60
2022-08-24T05:59:22.607Z,34.42
2022-08-24T06:01:49.726Z,38.72
2022-08-24T06:04:16.779Z,29.75
2022-08-24T06:06:43.572Z,29.65
2022-08-24T06:09:15.631Z,38.17
2022-08-24T06:11:42.455Z,33.70
2022-08-24T06:14:12.351Z,35.78
2022-08-24T06:16:43.179Z,43.90
2022-08-24T06:19:13.149Z,33.35
2022-08-24T06:21:41.285Z,32.47
2022-08-24T06:24:08.500Z,30.65
2022-08-24T06:26:54.298Z,34.13
2022-08-24T06:29:21.760Z,31.42
2022-08-24T06:31:54.560Z,29.60
2022-08-24T06:34:23.086Z,28.67
2022-08-24T06:36:49.956Z,33.53
2022-08-24T06:39:17.012Z,34.53
2022-08-24T06:41:44.260Z,31.20
2022-08-24T06:44:10.965Z,37.15
2022-08-24T06:46:37.893Z,27.40
2022-08-24T06:49:05.678Z,38.63
2022-08-24T06:51:32.560Z,31.25
2022-08-24T06:53:59.741Z,27.08
2022-08-24T06:56:26.518Z,30.85
2022-08-24T06:58:53.248Z,31.67
2022-08-24T07:01:25.966Z,33.30
2022-08-24T07:03:53.916Z,33.42
2022-08-24T07:06:22.028Z,34.55
2022-08-24T07:08:49.405Z,36.58
2022-08-24T07:11:18.177Z,41.40
2022-08-24T07:13:47.396Z,37.47
2022-08-24T07:16:19.520Z,31.70
2022-08-24T07:18:49.985Z,33.92
2022-08-24T07:21:19.731Z,35.20
2022-08-24T07:23:48.192Z,47.35
2022-08-24T07:26:22.896Z,30.10
2022-08-24T07:28:51.803Z,37.53
2022-08-24T07:31:18.974Z,29.98
2022-08-24T07:33:45.780Z,29.38
2022-08-24T07:36:22.196Z,30.08
2022-08-24T07:38:52.424Z,31.15
2022-08-24T07:41:40.268Z,33.67
2022-08-24T07:44:08.669Z,33.50
2022-08-24T07:46:35.610Z,38.42
2022-08-24T07:49:11.377Z,33.05
2022-08-24T07:51:47.083Z,33.60
2022-08-24T07:54:15.084Z,34.28
2022-08-24T07:56:42.858Z,39.17
2022-08-24T07:59:13.348Z,41.95
2022-08-24T08:01:41.366Z,28.45
2022-08-24T08:04:09.319Z,33.78
2022-08-24T08:06:36.456Z,35.70
2022-08-24T08:09:05.287Z,27.00
2022-08-24T08:11:32.456Z,37.42
2022-08-24T08:13:59.497Z,32.42
2022-08-24T08:16:26.469Z,33.85
2022-08-24T08:19:09.403Z,35.75
2022-08-24T08:22:07.985Z,33.42
2022-08-24T08:24:35.360Z,27.27
2022-08-24T08:27:02.093Z,34.92
2022-08-24T08:29:32.578Z,29.67
2022-08-24T08:32:00.572Z,37.80
2022-08-24T08:34:28.068Z,30.75
2022-08-24T08:36:55.203Z,40.20
2022-08-24T08:39:22.985Z,29.02
2022-08-24T08:42:08.610Z,31.42
2022-08-24T08:44:45.957Z,34.75
2022-08-24T08:47:37.998Z,35.65
2022-08-24T08:50:25.954Z,37.10
2022-08-24T08:53:15.113Z,29.60
2022-08-24T08:56:04.125Z,34.75
2022-08-24T08:58:39.974Z,34.45
2022-08-24T09:01:33.268Z,32.67
2022-08-24T09:04:46.332Z,34.17
2022-08-24T09:07:26.004Z,31.02
2022-08-24T09:10:26.213Z,37.90
2022-08-24T09:13:22.028Z,39.00
2022-08-24T09:15:59.480Z,47.83
2022-08-24T09:18:53.281Z,55.10
2022-08-24T09:21:32.071Z,37.65
2022-08-24T09:24:11.283Z,40.22
2022-08-24T09:26:51.449Z,41.03
2022-08-24T09:29:42.815Z,33.65
2022-08-24T09:32:37.444Z,38.38
2022-08-24T09:35:15.663Z,43.20
2022-08-24T09:38:01.036Z,39.95
2022-08-24T09:40:56.696Z,53.03
2022-08-24T09:43:38.953Z,46.42
2022-08-24T09:46:17.856Z,40.65
2022-08-24T09:49:21.416Z,46.92
2022-08-24T09:52:05.252Z,37.38
2022-08-24T09:54:59.462Z,40.30
2022-08-24T09:58:01.737Z,46.08
2022-08-24T10:00:38.714Z,56.05
2022-08-24T10:03:40.658Z,47.67
2022-08-24T10:06:14.553Z,51.45
2022-08-24T10:09:03.008Z,56.42
2022-08-24T10:11:58.825Z,67.30
2022-08-24T10:14:40.426Z,53.92
2022-08-24T10:17:53.391Z,55.00
2022-08-24T10:20:34.697Z,53.03
2022-08-24T10:23:29.243Z,60.78
2022-08-24T10:25:59.197Z,57.30
2022-08-24T10:28:47.657Z,45.50
2022-08-24T10:31:31.857Z,36.17
2022-08-24T10:34:05.250Z,37.42
2022-08-24T10:36:43.990Z,50.83
2022-08-24T10:39:41.209Z,72.20
2022-08-24T10:43:04.971Z,57.55
2022-08-24T10:46:10.167Z,62.13
2022-08-24T10:49:06.935Z,56.03
2022-08-24T10:52:04.370Z,61.78
2022-08-24T10:54:34.867Z,52.17
2022-08-24T10:57:22.444Z,57.85
2022-08-24T10:59:55.967Z,51.83
2022-08-24T11:02:37.534Z,55.45
2022-08-24T11:05:16.321Z,72.03
2022-08-24T11:08:05.981Z,54.37
2022-08-24T11:10:37.026Z,79.85
2022-08-24T11:13:30.454Z,65.65
2022-08-24T11:16:00.675Z,69.25
2022-08-24T11:18:47.144Z,68.30
2022-08-24T11:21:33.056Z,64.57
2022-08-24T11:24:17.998Z,63.13
2022-08-24T11:27:22.239Z,59.92
2022-08-24T11:29:52.122Z,68.38
2022-08-24T11:32:26.512Z,73.35
2022-08-24T11:34:53.519Z,59.80
2022-08-24T11:37:31.373Z,74.00
2022-08-24T11:39:58.182Z,65.30
2022-08-24T11:42:34.100Z,65.18
2022-08-24T11:45:15.670Z,72.80
2022-08-24T11:48:23.795Z,74.05
2022-08-24T11:51:00.712Z,76.82
2022-08-24T11:56:25.559Z,80.00
2022-08-24T11:59:01.573Z,72.35
2022-08-24T12:01:35.925Z,83.05
2022-08-24T12:04:40.043Z,79.95
2022-08-24T12:07:39.409Z,69.78
2022-08-24T12:10:28.565Z,65.22
2022-08-24T12:13:42.106Z,63.13
2022-08-24T12:16:46.276Z,69.53
2022-08-24T12:19:25.384Z,77.80
2022-08-24T12:21:55.731Z,75.70
2022-08-24T12:24:43.548Z,68.72
2022-08-24T12:27:16.693Z,82.32
2022-08-24T12:29:48.851Z,73.40
2022-08-24T12:32:37.575Z,76.45
2022-08-24T12:35:06.434Z,64.53
2022-08-24T12:37:44.135Z,77.97
2022-08-24T12:40:31.731Z,58.08
2022-08-24T12:43:09.028Z,82.30
2022-08-24T12:45:37.044Z,66.13
2022-08-24T12:48:16.714Z,57.72
2022-08-24T12:53:19.372Z,69.90
2022-08-24T12:55:52.732Z,61.72
2022-08-24T12:58:40.580Z,61.05
2022-08-24T13:01:26.515Z,52.20
2022-08-24T13:04:11.341Z,53.10
2022-08-24T13:06:43.320Z,48.92
2022-08-24T13:09:56.700Z,61.50
2022-08-24T13:12:43.473Z,56.03
2022-08-24T13:15:31.482Z,55.70
2022-08-24T13:18:07.562Z,53.33
2022-08-24T13:20:43.670Z,50.55
2022-08-24T13:23:13.776Z,45.50
2022-08-24T13:25:55.085Z,45.58
2022-08-24T13:28:21.844Z,45.58
2022-08-24T13:31:04.277Z,52.70
2022-08-24T13:33:53.811Z,54.85
2022-08-24T13:36:48.429Z,52.25
2022-08-24T13:39:42.072Z,52.78
2022-08-24T13:42:30.087Z,37.67
2022-08-24T13:45:00.201Z,43.55
2022-08-24T13:47:47.153Z,44.22
2022-08-24T13:50:38.942Z,48.17
2022-08-24T13:53:28.833Z,42.10
2022-08-24T13:56:20.411Z,42.05
2022-08-24T13:59:03.122Z,45.63
2022-08-24T14:01:34.028Z,50.35
2022-08-24T14:04:19.756Z,47.20
2022-08-24T14:07:23.781Z,42.45
2022-08-24T14:10:12.180Z,38.13
2022-08-24T14:13:14.171Z,39.33
2022-08-24T14:16:20.777Z,43.15
2022-08-24T14:19:29.610Z,49.90
2022-08-24T14:22:11.330Z,39.92
2022-08-24T14:24:46.342Z,38.97
2022-08-24T14:27:38.128Z,42.25
2022-08-24T14:30:19.876Z,40.58
2022-08-24T14:32:59.154Z,44.17
2022-08-24T14:35:58.428Z,36.33
2022-08-24T14:38:46.070Z,36.03
2022-08-24T14:41:22.486Z,41.53
2022-08-24T14:44:16.373Z,35.30
2022-08-24T14:47:07.464Z,36.08
2022-08-24T14:49:54.876Z,31.25
2022-08-24T14:52:30.484Z,33.92
2022-08-24T14:55:07.548Z,31.63
2022-08-24T14:57:59.935Z,23.38
2022-08-24T15:00:52.934Z,25.20
2022-08-24T15:03:44.804Z,23.65
2022-08-24T15:06:27.155Z,23.45
2022-08-24T15:09:25.695Z,22.23
2022-08-24T15:12:10.272Z,20.15
2022-08-24T15:14:52.063Z,28.60
2022-08-24T15:17:25.972Z,31.80
2022-08-24T15:20:10.328Z,28.42
2022-08-24T15:22:43.948Z,33.60
2022-08-24T15:25:26.461Z,31.17
2022-08-24T15:27:59.610Z,40.00
2022-08-24T15:30:32.865Z,40.47
2022-08-24T15:33:17.268Z,38.67
2022-08-24T15:35:52.346Z,35.30
2022-08-24T15:38:25.388Z,35.78
2022-08-24T15:41:07.383Z,33.10
2022-08-24T15:43:43.071Z,41.67
2022-08-24T15:46:10.843Z,43.65
2022-08-24T15:48:38.245Z,35.67
2022-08-24T15:51:06.249Z,41.40
2022-08-24T15:53:38.847Z,33.60
2022-08-24T15:56:35.883Z,33.28
2022-08-24T15:59:12.689Z,35.67
2022-08-24T16:01:58.844Z,33.25
2022-08-24T16:04:46.668Z,33.53
2022-08-24T16:07:25.158Z,36.17
2022-08-24T16:10:09.793Z,33.47
2022-08-24T16:12:37.366Z,25.23
2022-08-24T16:15:17.320Z,37.25
2022-08-24T16:17:51.544Z,27.90
2022-08-24T16:20:24.114Z,28.02
2022-08-24T16:23:28.051Z,31.35
2022-08-24T16:26:28.112Z,25.23
2022-08-24T16:31:49.203Z,22.80
2022-08-24T16:34:30.251Z,31.30
2022-08-24T16:36:57.899Z,26.90
2022-08-24T16:39:25.784Z,25.70
2022-08-24T16:41:55.943Z,24.48
2022-08-24T16:44:26.061Z,27.15
2022-08-24T16:46:53.198Z,30.00
2022-08-24T16:49:20.644Z,27.08
2022-08-24T16:51:49.087Z,26.52
2022-08-24T16:54:16.070Z,29.65
2022-08-24T16:56:43.764Z,37.85
2022-08-24T16:59:18.743Z,36.83
2022-08-24T17:01:49.720Z,36.33
2022-08-24T17:04:16.799Z,36.15
2022-08-24T17:06:45.247Z,36.22
2022-08-24T17:09:12.169Z,37.45
2022-08-24T17:11:39.225Z,34.85
2022-08-24T17:14:09.405Z,34.42
2022-08-24T17:16:37.025Z,31.65
2022-08-24T17:19:09.646Z,35.17
2022-08-24T17:21:38.593Z,35.33
2022-08-24T17:24:09.880Z,31.42
2022-08-24T17:26:40.866Z,33.28
2022-08-24T17:29:15.151Z,29.77
2022-08-24T17:31:47.082Z,41.38
2022-08-24T17:34:14.283Z,28.00
2022-08-24T17:36:45.412Z,32.35
2022-08-24T17:39:14.666Z,28.13
2022-08-24T17:41:41.629Z,29.03
2022-08-24T17:44:14.078Z,26.63
2022-08-24T17:46:41.680Z,37.70
2022-08-24T17:49:11.799Z,30.55
2022-08-24T17:51:39.211Z,27.80
2022-08-24T17:54:08.105Z,34.80
2022-08-24T17:59:28.013Z,32.35
2022-08-24T18:02:21.603Z,32.70
2022-08-24T18:04:50.889Z,38.97
2022-08-24T18:07:42.142Z,29.42
2022-08-24T18:10:11.318Z,34.70
2022-08-24T18:12:39.037Z,29.42
2022-08-24T18:15:07.825Z,34.10
2022-08-24T18:17:41.246Z,38.67
2022-08-24T18:20:13.397Z,31.98
2022-08-24T18:22:45.287Z,32.92
2022-08-24T18:25:13.732Z,33.53
2022-08-24T18:27:43.139Z,32.25
2022-08-24T18:30:18.302Z,25.48
2022-08-24T18:32:46.583Z,30.35
2022-08-24T18:35:13.637Z,30.63
2022-08-24T18:37:40.445Z,24.95
2022-08-24T18:40:07.943Z,24.52
2022-08-24T18:42:36.158Z,25.02
2022-08-24T18:45:04.825Z,22.77
2022-08-24T18:47:33.040Z,25.75
2022-08-24T18:50:01.544Z,25.10
2022-08-24T18:52:28.807Z,25.00
2022-08-24T18:55:02.766Z,22.77
2022-08-24T18:57:29.945Z,21.33
2022-08-24T18:59:56.795Z,18.83
2022-08-24T19:02:31.940Z,18.02
2022-08-24T19:05:10.208Z,22.92
2022-08-24T19:07:40.614Z,17.27
2022-08-24T19:10:09.936Z,21.02
2022-08-24T19:12:46.797Z,30.75
2022-08-24T19:15:32.007Z,19.25
2022-08-24T19:18:05.825Z,24.60
2022-08-24T19:20:36.885Z,24.58
2022-08-24T19:23:09.512Z,18.80
2022-08-24T19:25:37.576Z,24.58
2022-08-24T19:28:06.179Z,20.77
2022-08-24T19:30:34.161Z,23.67
2022-08-24T19:33:02.375Z,21.75
2022-08-24T19:35:35.151Z,28.35
2022-08-24T19:38:03.311Z,21.58
2022-08-24T19:40:32.607Z,22.20
2022-08-24T19:43:02.268Z,22.58
2022-08-24T19:45:47.911Z,25.33
2022-08-24T19:48:14.782Z,23.38
2022-08-24T19:50:45.855Z,22.20
2022-08-24T19:53:14.284Z,26.60
2022-08-24T19:55:41.768Z,26.38
2022-08-24T19:58:47.534Z,22.30
2022-08-24T20:01:21.558Z,29.08
2022-08-24T20:03:51.369Z,28.58
2022-08-24T20:06:21.364Z,29.80
2022-08-24T20:11:24.996Z,30.60
2022-08-24T20:13:55.913Z,24.83
2022-08-24T20:16:24.762Z,31.65
2022-08-24T20:18:51.892Z,29.45
2022-08-24T20:21:19.031Z,29.67
2022-08-24T20:23:47.057Z,21.90
2022-08-24T20:26:14.533Z,24.23
2022-08-24T20:28:48.482Z,26.77
2022-08-24T20:31:16.601Z,26.30
2022-08-24T20:33:43.455Z,28.73
2022-08-24T20:36:24.253Z,37.63
2022-08-24T20:38:52.131Z,29.40
2022-08-24T20:41:19.146Z,39.38
2022-08-24T20:43:46.025Z,33.03
2022-08-24T20:46:13.163Z,28.83
2022-08-24T20:48:42.976Z,28.33
2022-08-24T20:53:37.088Z,27.45
2022-08-24T20:56:11.905Z,37.63
2022-08-24T20:58:40.276Z,24.75
2022-08-24T21:01:08.411Z,34.22
2022-08-24T21:03:36.864Z,28.58
2022-08-24T21:06:04.810Z,34.25
2022-08-24T21:08:32.595Z,26.15
2022-08-24T21:10:59.401Z,33.75
2022-08-24T21:13:26.259Z,31.30
2022-08-24T21:15:53.030Z,30.58
2022-08-24T21:18:20.727Z,28.70
2022-08-24T21:21:03.267Z,28.55
2022-08-24T21:23:31.577Z,32.75
2022-08-24T21:25:59.575Z,29.52
2022-08-24T21:28:26.457Z,23.35
2022-08-24T21:30:53.270Z,27.80
2022-08-24T21:33:38.921Z,32.95
2022-08-24T21:36:06.031Z,28.75
2022-08-24T21:38:34.224Z,23.45
2022-08-24T21:41:01.105Z,29.80
2022-08-24T21:43:29.323Z,27.83
2022-08-24T21:45:56.368Z,22.70
2022-08-24T21:48:23.119Z,25.58
2022-08-24T21:50:49.990Z,26.38
2022-08-24T21:53:16.772Z,24.00
2022-08-24T21:55:43.730Z,29.23
2022-08-24T21:58:11.281Z,31.35
2022-08-24T22:00:39.039Z,30.60
2022-08-24T22:03:08.619Z,28.00
2022-08-24T22:05:35.631Z,28.23
2022-08-24T22:08:05.047Z,32.10
2022-08-24T22:10:32.395Z,35.75
2022-08-24T22:13:03.848Z,29.60
2022-08-24T22:15:33.737Z,29.52
2022-08-24T22:18:00.730Z,27.45
2022-08-24T22:20:27.582Z,28.85
2022-08-24T22:22:56.643Z,30.20
2022-08-24T22:25:23.388Z,39.25
2022-08-24T22:27:50.114Z,31.63
2022-08-24T22:30:18.044Z,31.08
2022-08-24T22:32:46.305Z,28.45
2022-08-24T22:35:14.313Z,29.88
2022-08-24T22:37:41.780Z,36.55
2022-08-24T22:40:10.294Z,33.40
2022-08-24T22:42:39.754Z,31.83
2022-08-24T22:45:07.704Z,26.55
2022-08-24T22:47:34.510Z,30.92
2022-08-24T22:50:02.954Z,30.13
2022-08-24T22:52:29.652Z,28.02
2022-08-24T22:54:58.500Z,27.08
2022-08-24T22:57:26.809Z,29.52
2022-08-24T22:59:54.810Z,27.40
2022-08-24T23:02:22.487Z,26.35
2022-08-24T23:04:51.063Z,35.63
2022-08-24T23:07:18.831Z,27.50
2022-08-24T23:09:46.507Z,26.35
2022-08-24T23:12:16.729Z,24.42
2022-08-24T23:14:43.536Z,23.63
2022-08-24T23:17:11.136Z,28.05
2022-08-24T23:19:56.695Z,24.70
2022-08-24T23:22:25.747Z,24.13
2022-08-24T23:24:52.836Z,25.30
2022-08-24T23:27:21.459Z,30.92
2022-08-24T23:29:49.363Z,26.77
2022-08-24T23:32:19.035Z,27.27
2022-08-24T23:34:48.223Z,30.42
2022-08-24T23:37:17.532Z,30.13
2022-08-24T23:39:44.451Z,26.98
2022-08-24T23:42:12.004Z,31.35
2022-08-24T23:44:39.385Z,20.92
2022-08-24T23:47:06.510Z,27.83
2022-08-24T23:49:33.941Z,23.23
2022-08-24T23:52:01.119Z,33.60
2022-08-24T23:54:28.594Z,28.92
2022-08-24T23:56:56.282Z,32.13
2022-08-24T23:59:25.360Z,30.67
